Hub


Voltar

 INFORMAÇÕES METEOROLÓGICAS

METAR FOR GCHI


ADDS - METARS form results

(2340 UTC 19 August 2019)
Data provider http://aviationweather.gov/metar/data/
 
METAR text: GCHI 192330Z AUTO 33025G35KT 310V020 9999 OVC013 23/20 Q1018
Conditions at: GCHI (HIERRO AIRPORT , ES) observed 2330 UTC 19 August 2019
Temperature: 23.0°C (73°F)
Dewpoint: 20.0°C (68°F) [RH = 83%]
Pressure (altimeter): 30.06 inches Hg (1018.0 mb)
Winds: from the NNW (330 degrees) at 29 MPH (25 knots; 12.9 m/s)
gusting to 40 MPH (35 knots; 18.0 m/s)
Visibility: 6 or more miles (10+ km)
Ceiling: 1300 feet AGL
Clouds: overcast cloud deck at 1300 feet AGL
Weather: no significant weather observed at this time

METAR text: GCHI 192300Z AUTO 33023KT 9999 OVC012 23/20 Q1018
Conditions at: GCHI (HIERRO AIRPORT , ES) observed 2300 UTC 19 August 2019
Temperature: 23.0°C (73°F)
Dewpoint: 20.0°C (68°F) [RH = 83%]
Pressure (altimeter): 30.06 inches Hg (1018.0 mb)
Winds: from the NNW (330 degrees) at 26 MPH (23 knots; 11.8 m/s)
Visibility: 6 or more miles (10+ km)
Ceiling: 1200 feet AGL
Clouds: overcast cloud deck at 1200 feet AGL
Weather: no significant weather observed at this time

Forecast for: AMD
Text: TAF AMD GCHI 192303Z 1923/2021 33020KT 9999 FEW020 TX26/2013Z TN22/2005Z
Forecast period: 2300 UTC 19 August 2019 to 2100 UTC 20 August 2019
Forecast type: FROM: standard forecast or significant change
Winds: from the NNW (330 degrees) at 23 MPH (20 knots; 10.3 m/s)
Visibility: 6 or more miles 10+ km)
Ceiling: at least 12,000 feet AGL
Clouds: few clouds at 2000 feet AGL
Weather: no significant weather forecast for this period
Text: PROB40
Forecast period: 2300 UTC 19 August 2019 to 2100 UTC 20 August 2019
Forecast type: TEMPORARY: The following changes expected for less than half the time period
Winds: from the NNW (330 degrees) at 23 MPH (20 knots; 10.3 m/s)
gusting to 34 MPH (30 knots; 15.4 m/s)
Visibility: missing
Ceiling: unknown
Clouds: missing
Weather: no significant weather forecast for this period
Text: TEMPO 1923/2021 33020G30KT
Forecast period: 2300 UTC 19 August 2019 to 0600 UTC 20 August 2019
Forecast type: TEMPORARY: The following changes expected for less than half the time period
Visibility: missing
Ceiling: 1000 feet AGL
Clouds: broken clouds at 1000 feet AGL
Weather: no significant weather forecast for this period


 MAPA DO AEROPORTO


 INFORMAÇÕES DA PISTA

Pista 16 Tamanho da pista 4101 ft Largura da pista 98 ft
Elevação da pista 71 ft Ranhura da pista 0 ft Proa da pista 153
Pista 34 Tamanho da pista 4101 ft Largura da pista 98 ft
Elevação da pista 103 ft Ranhura da pista 0 ft Proa da pista 333

 FREQUÊNCIAS DO AEROPORTO

Tipo A/D Nome CANARIAS A Frequência 126.1 MHZ
Tipo GND Nome GND Frequência 121.6 MHZ
Tipo TWR Nome TWR Frequência 118.1 MHZ

 AUXÍLIOS DE NAVEGAÇÃO PRÓXIMOS AO AEROPORTO

Tipo NDB Nome Hierro Frequência 376 KHZ
Tipo DME Nome Hierro Frequência 113200 KHZ